Possession, Washington
Current Conditions -  °F | °C
As of 5:53 AM on Saturday 20 Dec 2014 (Local Time) from KPAE Reporting Station
Light Rain Light Rain  
Wind Chill: 38°   Ceiling: 6500
Heat Index: 45°   Visibility: 10mi
Dew Point: 39°   Wind: 15mph
Humidity: 80%   Direction: 160°SSE
Pressure: 29.67"   Gusts: NA
Location:  47.9614°N, 122.409°W
Report Text: KPAE 201353Z AUTO 16013KT 10SM -RA OVC065 07/04 A2967 RMK AO2 SLP049 P0001 T00720039
Loading
Personal Weather Stations






























Interactive Weather Map New forecast layout! Learn more

10-Day Weather Forecast

Advertisements
Track Severe Weather on mobile